logo
Rechercher aéroport 
image banner adimage banner adimage banner ad
image banner ad

FKYS - Yaounde/Nsimalen

Situé à Yaounde, Cameroon

ICAO - FKYS, IATA - NSI

Données fournies par Airmate  

Information générale

Coordonnées: N3°43'21" E11°33'12"
Élévation : 2278 feet MSL.
 
Voir autres Aéroports à Centre Region

Données opérationnelles

Special qualification required
Heure actuelle UTC:
Heure actuelle locale:
Météo
METAR: FKYS 171500Z 02006KT 8000 BKN020 30/20 Q1014 NOSIG
Voir NOTAMs / SUP AIP / TFR affectant cet aéroport [VIEW]
Fréquences de communication: [VIEW]

Pistes:

Identifiant RWYQFULongueur (ft)Largeur (ft)SurfaceLDA (ft)
0110°11161148ASP
19190°11161148ASP

Coordonnées de l'aéroport

Adresse: Yaounde Cameroon

Vue satellite de FKYS